Latest Weather Observations for Green Cape

IDN60801

Issued at 8:02 am EDT Monday 27 February 2017 (issued every 30 minutes, with the page automatically refreshed every 10 minutes)

About weather observations | Map of weather stations | Latest weather observations for NSW | Other Formats
Station Details ID: 069137 Name: GREEN CAPE AWS Lat: -37.26 Lon: 150.05 Height: 19.4 m
Data from the previous 72 hours. | See also: Recent months at Green Cape
Date/Time
EDT
Temp
°C
App
Temp
°C
Dew
Point
°C
Rel
Hum
%
Delta-T
°C
Wind Press
QNH
hPa
Press
MSL
hPa
Rain since
9am
mm
Dir  Spd
km/h
Gust
km/h
Spd
kts
Gust
kts
27/08:00am 19.9 16.3 15.3 75 2.7 ENE 28 32 15 17 1026.1 1026.1 0.0
27/07:30am 19.8 15.4 15.2 75 2.7 ENE 32 35 17 19 1025.7 1025.7 0.0
27/07:00am 19.9 15.4 15.3 75 2.7 ENE 33 39 18 21 1025.2 1025.2 0.0
27/06:30am 19.8 15.3 15.4 76 2.6 ENE 33 41 18 22 1024.7 1024.7 0.0
27/06:00am 19.8 15.5 15.4 76 2.6 ENE 32 37 17 20 1024.6 1024.6 0.0
27/05:30am 20.0 15.5 15.4 75 2.7 ENE 33 37 18 20 1024.5 1024.5 0.0
27/05:00am 19.9 15.4 15.5 76 2.6 ENE 33 41 18 22 1024.3 1024.3 0.0
27/04:30am 20.0 15.8 15.6 76 2.6 ENE 32 39 17 21 1024.3 1024.3 0.0
27/04:00am 20.0 15.6 15.6 76 2.6 ENE 33 39 18 21 1024.3 1024.3 0.0
27/03:30am 20.0 15.7 15.8 77 2.5 ENE 33 41 18 22 1024.5 1024.5 0.0
27/03:00am 20.1 15.8 15.9 77 2.5 ENE 33 39 18 21 1024.7 1024.7 0.0
27/02:30am 20.1 15.9 16.1 78 2.4 NE 33 39 18 21 1024.7 1024.7 0.0
27/02:00am 19.9 15.9 16.3 80 2.2 NNE 32 39 17 21 1024.9 1024.9 0.0
27/01:53am 20.1 15.6 16.5 80 2.2 NE 35 43 19 23 1024.9 1024.9 0.0
27/01:30am 20.3 15.2 16.7 80 2.2 NE 39 44 21 24 1024.8 1024.8 0.0
27/01:00am 20.2 16.2 16.8 81 2.1 ENE 33 41 18 22 1025.1 1025.1 0.0
27/12:30am 20.1 16.3 17.1 83 1.8 ENE 33 39 18 21 1025.1 1025.1 0.0
27/12:22am 19.7 18.5 17.1 85 1.6 NE 19 37 10 20 1025.2 1025.2 0.0
27/12:00am 18.7 19.5 15.8 83 1.7 NW 6 9 3 5 1025.6 1025.6 0.0
 
Date/Time
EDT
Temp
°C
App
Temp
°C
Dew
Point
°C
Rel
Hum
%
Delta-T
°C
Wind Press
QNH
hPa
Press
MSL
hPa
Rain since
9am
mm
Dir  Spd
km/h
Gust
km/h
Spd
kts
Gust
kts
26/11:30pm 19.4 19.4 16.2 82 1.9 NNE 11 13 6 7 1025.7 1025.7 0.0
26/11:00pm 19.7 19.0 16.3 81 2.0 NE 15 17 8 9 1025.8 1025.8 0.0
26/10:30pm 19.9 18.7 16.2 79 2.2 ENE 17 20 9 11 1025.8 1025.8 0.0
26/10:00pm 19.9 18.3 16.0 78 2.3 ENE 19 24 10 13 1025.9 1025.9 0.0
26/09:30pm 19.7 18.6 15.4 76 2.5 E 15 19 8 10 1025.9 1025.9 0.0
26/09:00pm 19.3 17.2 14.8 75 2.6 E 19 22 10 12 1025.7 1025.7 0.0
26/08:30pm 19.4 17.4 14.9 75 2.6 E 19 24 10 13 1025.4 1025.4 0.0
26/08:00pm 19.3 17.4 14.3 73 2.9 E 17 22 9 12 1025.4 1025.4 0.0
26/07:30pm 19.3 17.2 13.5 69 3.3 E 17 20 9 11 1025.2 1025.2 0.0
26/07:00pm 19.5 17.5 12.8 65 3.8 E 15 19 8 10 1025.1 1025.1 0.0
26/06:30pm 19.8 16.9 12.3 62 4.2 E 19 22 10 12 1025.0 1025.0 0.0
26/06:00pm 20.1 17.4 11.6 58 4.7 E 17 20 9 11 1024.7 1024.7 0.0
26/05:30pm 20.5 17.7 11.4 56 5.0 E 17 20 9 11 1024.6 1024.6 0.0
26/05:00pm 21.1 19.4 12.3 57 4.9 E 13 17 7 9 1024.6 1024.6 0.0
26/04:30pm 21.4 19.1 10.3 49 6.0 E 13 19 7 10 1024.8 1024.8 0.0
26/04:00pm 21.9 19.7 10.7 49 6.1 E 13 17 7 9 1024.9 1024.9 0.0
26/03:30pm 22.1 20.3 10.9 49 6.2 ENE 11 15 6 8 1024.8 1024.8 0.0
26/03:00pm 22.3 20.6 11.1 49 6.2 ENE 11 15 6 8 1024.9 1024.9 0.0
26/02:30pm 22.7 21.1 11.4 49 6.3 ENE 11 17 6 9 1025.3 1025.3 0.0
26/02:00pm 21.3 20.4 11.3 53 5.5 ENE 7 13 4 7 1025.5 1025.5 0.0
26/01:30pm 23.4 22.2 11.5 47 6.7 ENE 9 13 5 7 1025.6 1025.6 0.0
26/01:00pm 23.4 22.9 10.8 45 7.0 E 4 9 2 5 1025.7 1025.7 0.0
26/12:30pm 23.2 22.4 11.6 48 6.5 ESE 7 9 4 5 1025.9 1025.9 0.0
26/12:00pm 22.7 21.4 11.4 49 6.3 ESE 9 13 5 7 1025.9 1025.9 0.0
26/11:30am 21.9 20.1 10.7 49 6.2 E 11 15 6 8 1026.0 1026.0 0.0
26/11:00am 21.5 19.1 11.5 53 5.5 E 15 19 8 10 1026.2 1026.2 0.0
26/10:30am 20.8 19.2 11.4 55 5.2 ENE 11 17 6 9 1026.3 1026.3 0.0
26/10:00am 19.7 17.6 11.2 58 4.6 E 13 17 7 9 1026.0 1026.0 0.0
26/09:30am 19.9 18.9 11.1 57 4.8 ENE 7 15 4 8 1025.7 1025.7 0.0
26/09:00am 19.0 15.5 10.3 57 4.6 E 19 22 10 12 1025.4 1025.4 0.0
26/08:30am 18.6 15.2 11.4 63 3.9 ESE 20 24 11 13 1025.5 1025.5 0.0
26/08:00am 18.4 15.7 11.7 65 3.7 ESE 17 22 9 12 1025.3 1025.3 0.0
26/07:30am 18.1 15.8 11.9 67 3.4 SE 15 19 8 10 1025.0 1025.0 0.0
26/07:00am 17.8 15.3 11.1 65 3.6 ESE 15 20 8 11 1024.7 1024.7 0.0
26/06:30am 17.9 15.1 11.5 66 3.5 ESE 17 20 9 11 1024.3 1024.3 0.0
26/06:00am 17.8 15.0 11.4 66 3.5 ESE 17 20 9 11 1024.1 1024.1 0.0
26/05:30am 18.1 15.1 12.1 68 3.3 ESE 19 24 10 13 1023.5 1023.5 0.0
26/05:00am 18.2 15.7 12.2 68 3.3 ESE 17 20 9 11 1023.4 1023.4 0.0
26/04:30am 18.5 15.8 12.9 70 3.1 SE 19 24 10 13 1023.5 1023.5 0.0
26/04:00am 18.4 15.5 12.4 68 3.3 ESE 19 22 10 12 1023.5 1023.5 0.0
26/03:30am 18.4 15.9 12.4 68 3.3 ESE 17 20 9 11 1023.6 1023.6 0.0
26/03:00am 18.5 15.5 12.5 68 3.3 ESE 20 24 11 13 1023.8 1023.8 0.0
26/02:30am 18.6 15.7 12.8 69 3.3 ESE 20 26 11 14 1023.9 1023.9 0.0
26/02:00am 18.6 15.7 13.0 70 3.1 ESE 20 24 11 13 1024.0 1024.0 0.0
26/01:30am 18.8 16.2 13.2 70 3.2 ESE 19 24 10 13 1024.1 1024.1 0.0
26/01:00am 18.8 15.9 14.1 74 2.7 SE 22 28 12 15 1024.4 1024.4 0.0
26/12:30am 18.9 16.6 14.2 74 2.7 SE 19 24 10 13 1024.6 1024.6 0.0
26/12:00am 18.7 16.4 13.1 70 3.1 ESE 17 20 9 11 1024.7 1024.7 0.0
 
Date/Time
EDT
Temp
°C
App
Temp
°C
Dew
Point
°C
Rel
Hum
%
Delta-T
°C
Wind Press
QNH
hPa
Press
MSL
hPa
Rain since
9am
mm
Dir  Spd
km/h
Gust
km/h
Spd
kts
Gust
kts
25/11:30pm 18.7 16.2 13.6 72 2.9 SE 19 22 10 12 1024.9 1024.9 0.0
25/11:00pm 18.8 15.6 13.2 70 3.2 ESE 22 24 12 13 1024.8 1024.8 0.0
25/10:30pm 18.9 15.5 12.6 67 3.5 ESE 22 28 12 15 1024.8 1024.8 0.0
25/10:00pm 18.9 15.1 12.4 66 3.6 SE 24 30 13 16 1024.8 1024.8 0.0
25/09:30pm 18.8 14.4 12.8 68 3.4 SE 28 32 15 17 1024.7 1024.7 0.0
25/09:00pm 18.8 14.4 13.0 69 3.3 SE 28 33 15 18 1024.5 1024.5 0.0
25/08:30pm 18.8 13.6 12.8 68 3.4 SE 32 37 17 20 1024.1 1024.1 0.0
25/08:00pm 18.9 13.7 12.9 68 3.4 SE 32 35 17 19 1023.9 1023.9 0.0
25/07:30pm 18.9 14.2 13.1 69 3.3 ESE 30 39 16 21 1023.3 1023.3 0.0
25/07:00pm 18.9 13.7 12.9 68 3.4 ESE 32 37 17 20 1023.0 1023.0 0.0
25/06:30pm 19.1 14.5 13.5 70 3.2 ESE 30 37 16 20 1022.8 1022.8 0.0
25/06:00pm 19.1 14.5 13.5 70 3.2 ESE 30 37 16 20 1022.7 1022.7 0.0
25/05:30pm 19.3 14.5 14.1 72 3.0 ESE 32 37 17 20 1022.7 1022.7 0.0
25/05:00pm 19.4 14.9 14.9 75 2.6 ESE 32 37 17 20 1022.6 1022.6 0.0
25/04:30pm 19.0 16.1 16.2 84 1.7 ESE 26 32 14 17 1022.7 1022.7 0.0
25/04:00pm 18.5 15.8 15.7 84 1.6 S 24 28 13 15 1022.8 1022.8 0.0
25/03:30pm 19.0 16.3 15.7 81 2.0 S 24 28 13 15 1023.0 1023.0 0.0
25/03:00pm 18.9 16.9 15.4 80 2.1 S 20 24 11 13 1023.1 1023.1 0.0
25/02:30pm 18.9 17.1 15.4 80 2.1 S 19 24 10 13 1023.5 1023.5 0.0
25/02:00pm 18.7 16.3 15.4 81 1.9 SSW 22 26 12 14 1023.7 1023.7 0.0
25/01:30pm 18.4 15.5 15.1 81 1.9 SSW 24 28 13 15 1023.8 1023.8 0.0
25/01:00pm 18.7 15.0 15.0 79 2.2 SSW 28 32 15 17 1023.8 1023.8 0.0
25/12:30pm 18.2 14.0 14.7 80 2.0 SSW 30 33 16 18 1023.7 1023.7 0.0
25/12:00pm 18.3 14.8 14.4 78 2.2 SSW 26 32 14 17 1023.8 1023.8 0.0
25/11:30am 18.9 15.4 14.4 75 2.6 SSW 26 32 14 17 1023.8 1023.8 0.0
25/11:00am 18.9 15.4 14.6 76 2.5 SSW 26 32 14 17 1023.7 1023.7 0.0
25/10:30am 18.6 14.5 13.9 74 2.7 SSW 28 33 15 18 1023.7 1023.7 0.0
25/10:00am 18.6 14.9 13.9 74 2.7 SSW 26 30 14 16 1023.7 1023.7 0.0
25/09:30am 18.8 13.3 13.6 72 3.0 SSW 35 41 19 22 1023.2 1023.2 0.0
25/09:00am 18.8 14.9 14.3 75 2.6 SSW 28 32 15 17 1023.3 1023.3 0.0
25/08:30am 17.5 13.4 12.8 74 2.6 WSW 26 30 14 16 1023.1 1023.1 0.0
25/08:00am 17.1 13.5 13.0 77 2.3 WSW 24 28 13 15 1022.9 1022.9 0.0
25/07:30am 16.7 12.6 12.7 77 2.2 WSW 26 32 14 17 1022.7 1022.7 0.0
25/07:00am 16.2 12.5 12.6 79 2.0 W 24 33 13 18 1022.5 1022.5 0.0
25/06:30am 16.5 12.7 12.5 77 2.2 WSW 24 28 13 15 1022.5 1022.5 0.0
25/06:00am 16.6 12.2 12.8 78 2.1 WSW 28 35 15 19 1022.3 1022.3 0.0
25/05:30am 16.5 12.0 12.7 78 2.1 WSW 28 35 15 19 1022.1 1022.1 0.0
25/05:00am 16.5 11.9 12.3 76 2.3 WSW 28 35 15 19 1021.9 1021.9 0.0
25/04:30am 16.8 11.6 12.7 77 2.3 WSW 32 37 17 20 1021.9 1021.9 0.0
25/04:00am 17.1 12.3 12.8 76 2.4 WSW 30 33 16 18 1022.1 1022.1 0.0
25/03:30am 17.1 12.3 12.8 76 2.4 WSW 30 33 16 18 1022.3 1022.3 0.0
25/03:00am 17.1 11.9 12.8 76 2.4 WSW 32 37 17 20 1022.2 1022.2 0.0
25/02:30am 17.1 12.2 12.6 75 2.5 SW 30 35 16 19 1022.4 1022.4 0.0
25/02:00am 17.3 12.4 12.6 74 2.6 WSW 30 35 16 19 1022.6 1022.6 0.0
25/01:30am 17.1 12.9 12.4 74 2.6 WSW 26 32 14 17 1023.1 1023.1 0.0
25/01:00am 17.2 12.7 12.5 74 2.6 WSW 28 35 15 19 1023.3 1023.3 0.0
25/12:30am 17.3 13.2 12.6 74 2.6 WSW 26 32 14 17 1023.4 1023.4 0.0
25/12:00am 17.3 13.5 12.4 73 2.7 WSW 24 30 13 16 1023.5 1023.5 0.0
 
Date/Time
EDT
Temp
°C
App
Temp
°C
Dew
Point
°C
Rel
Hum
%
Delta-T
°C
Wind Press
QNH
hPa
Press
MSL
hPa
Rain since
9am
mm
Dir  Spd
km/h
Gust
km/h
Spd
kts
Gust
kts
24/11:30pm 17.3 13.4 12.2 72 2.8 WSW 24 30 13 16 1023.7 1023.7 0.0
24/11:00pm 17.4 13.9 12.3 72 2.8 WSW 22 30 12 16 1023.9 1023.9 0.0
24/10:30pm 17.6 14.1 12.3 71 2.9 WSW 22 28 12 15 1024.0 1024.0 0.0
24/10:00pm 17.7 13.4 12.2 70 3.0 WSW 26 33 14 18 1024.1 1024.1 0.0
24/09:30pm 17.7 14.2 12.2 70 3.0 WSW 22 33 12 18 1024.1 1024.1 0.0
24/09:00pm 17.9 14.5 12.4 70 3.0 SW 22 30 12 16 1023.8 1023.8 0.0
24/08:30pm 17.9 13.1 12.8 72 2.9 SW 30 41 16 22 1023.4 1023.4 0.0
24/08:00pm 17.8 11.7 12.9 73 2.7 SW 37 44 20 24 1022.8 1022.8 0.0
24/07:30pm 17.8 11.7 13.1 74 2.6 SSW 37 43 20 23 1022.6 1022.6 0.0
24/07:00pm 18.3 12.1 13.8 75 2.6 SW 39 44 21 24 1022.3 1022.3 0.0
24/06:30pm 18.3 12.2 14.2 77 2.4 SSW 39 50 21 27 1021.9 1021.9 0.0
24/06:00pm 18.5 11.8 14.6 78 2.3 SSW 43 48 23 26 1021.3 1021.3 0.0
24/05:30pm 18.7 11.6 15.0 79 2.2 SSW 46 52 25 28 1021.0 1021.0 0.0
24/05:00pm 19.1 12.7 15.4 79 2.2 SSW 43 48 23 26 1020.8 1020.8 0.0
24/04:30pm 19.3 13.0 15.6 79 2.2 SSW 43 50 23 27 1020.6 1020.6 0.0
24/04:00pm 19.2 13.0 15.9 81 2.0 SSW 43 50 23 27 1020.7 1020.7 0.0
24/03:30pm 19.3 12.6 16.0 81 2.0 SSW 46 52 25 28 1020.5 1020.5 0.0
24/03:00pm 19.8 13.2 16.3 80 2.1 S 46 52 25 28 1020.7 1020.7 0.0
24/02:30pm 21.7 16.4 17.3 76 2.7 S 41 46 22 25 1020.9 1020.9 0.0
24/02:00pm 21.3 16.7 17.1 77 2.6 S 37 43 20 23 1021.2 1021.2 0.0
24/01:30pm 21.3 16.2 16.9 76 2.7 S 39 44 21 24 1021.2 1021.2 0.0
24/01:00pm 21.4 16.5 17.4 78 2.5 S 39 43 21 23 1021.3 1021.3 0.0
24/12:30pm 20.9 17.1 17.1 79 2.3 S 33 37 18 20 1021.5 1021.5 0.0
24/12:00pm 21.5 19.6 17.7 79 2.3 S 24 28 13 15 1021.8 1021.8 0.0
24/11:30am 20.8 18.6 17.0 79 2.3 S 24 28 13 15 1021.9 1021.9 0.0
24/11:00am 20.6 19.3 17.2 81 2.1 SSW 20 24 11 13 1022.1 1022.1 0.0
24/10:30am 19.8 19.9 16.4 81 2.0 WSW 11 15 6 8 1022.3 1022.3 0.0
24/10:00am 19.5 20.0 16.5 83 1.8 WSW 9 13 5 7 1022.3 1022.3 0.0
24/09:30am 18.9 18.5 16.3 85 1.6 W 13 17 7 9 1022.3 1022.3 0.0
24/09:00am 18.8 18.0 16.2 85 1.5 WSW 15 19 8 10 1021.9 1021.9 0.0
24/08:30am 18.7 18.0 16.3 86 1.4 WSW 15 15 8 8 1021.8 1021.8 0.0

Other Formats:

Comma delimited format used in spreadsheet applications
http://www.bom.gov.au/fwo/IDN60801/IDN60801.94934.axf

JavaScript Object Notation format (JSON) in row-major order
http://www.bom.gov.au/fwo/IDN60801/IDN60801.94934.json